Main page
METAR-TAF:

METAR-TAF

Airports :

Lubbock Preston Smith International Airport

Lubbock, Texas, United States

latitude: 33-40-03N, longitude: 101-49-17W, elevation: 3280 ft

Current weather observation

The report was made 20 minutes ago, at 07:56 UTC
Wind 12 mph from the East/Southeast
Temperature 66°F
Humidity 73%
Pressure 30.06 in. Hg
Visibility: 10 miles
Few clouds at a height of 5000 ft
Few clouds at a height of 10000 ft
Scattered clouds at a height of 20000 ft
Scattered clouds at a height of 25000 ft

METAR: KLBB 240756Z 12010KT 10SM FEW050 FEW100 SCT200 SCT250 19/14 A3006 RMK AO2 TSE56 TS MOV NE CB DSNT NE MOV NE T01940144

Time: 03:16 (08:16 UTC)

Forecast

The report was made 2 hours and 45 minutes ago, at 05:31 UTC
Forecast valid from 24 at 06 UTC to 25 at 06 UTC
Wind 13 mph from the South
Visibility: 6 miles
Broken clouds at a height of 20000 ft

TAF: KLBB 240531Z 2406/2506 17011KT P6SM BKN200

Weather observations and forecasts of more than 4000 airports (METAR and TAF reports).

The available stations are represented by yellow and red dots on the map.

Hover mouse over dot to see the name of the station.

Then click to see weather observations and forecasts.

To change the map : click on the green buttons with a black cross to zoom in, on the green button with a dash to zoom out, or on the green arrows for adjacent maps.


METAR-TAF: